UBBB/BAK METAR and TAF weather

Enter ICAO airport designator
Station Type Date Time Source
UBBB METAR 2021/04/13 23:30 UTC NOAA

UBBB 132330Z 32008KT CAVOK 11/08 Q1014 R88/CLRD// NOSIG


Station Type Date Time Source
UBBB Decoded METAR 2021/04/13 23:30 UTC NOAA

Baku / Bine Airport, Azerbaijan (UBBB) 40-27N 050-04E -1M
Apr 13, 2021 - 07:30 PM EDT / 2021.04.13 2330 UTC
Wind: from the NW (320 degrees) at 9 MPH (8 KT):0
Visibility: greater than 7 mile(s):0
Temperature: 51 F (11 C)
Dew Point: 46 F (8 C)
Relative Humidity: 81%
Pressure (altimeter): 29.94 in. Hg (1014 hPa)
ob: UBBB 132330Z 32008KT CAVOK 11/08 Q1014 R88/CLRD// NOSIG
cycle: 23

Station Type Date Time Source
UBBB TAF 2021/04/13 18:28 UTC NOAA

TAF UBBB 131725Z 1318/1418 32010KT 9999 SCT025 TX18/1411Z TN08/1402Z
TEMPO 1320/1324 SCT010 FEW050CB
BECMG 1400/1402 VRB06KT
TEMPO 1402/1408 SCT012 SCT040CB
BECMG 1408/1410 33016KT

Example: see airport list